createdAt,value
2022-08-07T00:02:39.923Z,23.53
2022-08-07T00:04:58.936Z,23.41
2022-08-07T00:07:27.351Z,23.49
2022-08-07T00:10:19.296Z,23.51
2022-08-07T00:12:57.700Z,23.49
2022-08-07T00:15:36.119Z,23.51
2022-08-07T00:18:06.066Z,23.49
2022-08-07T00:20:34.472Z,23.49
2022-08-07T00:23:02.469Z,23.49
2022-08-07T00:25:37.567Z,23.49
2022-08-07T00:28:08.513Z,23.49
2022-08-07T00:30:37.544Z,23.49
2022-08-07T00:33:05.009Z,23.48
2022-08-07T00:35:35.256Z,23.49
2022-08-07T00:38:04.166Z,23.50
2022-08-07T00:40:36.986Z,23.47
2022-08-07T00:43:09.481Z,23.46
2022-08-07T00:45:37.110Z,23.46
2022-08-07T00:48:09.203Z,23.46
2022-08-07T00:50:51.384Z,23.46
2022-08-07T00:53:20.607Z,23.46
2022-08-07T00:56:03.276Z,23.45
2022-08-07T00:58:31.547Z,23.43
2022-08-07T01:00:58.798Z,23.44
2022-08-07T01:03:56.771Z,23.43
2022-08-07T01:06:13.152Z,23.43
2022-08-07T01:08:43.309Z,23.45
2022-08-07T01:12:10.211Z,23.40
2022-08-07T01:14:07.310Z,23.30
2022-08-07T01:16:37.038Z,23.36
2022-08-07T01:19:18.508Z,23.39
2022-08-07T01:21:47.351Z,23.39
2022-08-07T01:24:14.585Z,23.40
2022-08-07T01:26:51.726Z,23.37
2022-08-07T01:29:19.779Z,23.39
2022-08-07T01:31:48.175Z,23.39
2022-08-07T01:34:15.818Z,23.37
2022-08-07T01:36:44.153Z,23.37
2022-08-07T01:39:11.559Z,23.37
2022-08-07T01:41:40.934Z,23.37
2022-08-07T01:44:26.572Z,23.36
2022-08-07T01:46:53.970Z,23.36
2022-08-07T01:49:21.415Z,23.35
2022-08-07T01:52:02.177Z,23.36
2022-08-07T01:54:37.695Z,23.35
2022-08-07T01:57:24.784Z,23.35
2022-08-07T01:59:58.053Z,23.33
2022-08-07T02:03:15.952Z,23.34
2022-08-07T02:05:43.194Z,23.33
2022-08-07T02:08:17.062Z,23.32
2022-08-07T02:10:44.932Z,23.32
2022-08-07T02:13:56.415Z,23.32
2022-08-07T02:16:12.108Z,23.31
2022-08-07T02:18:45.407Z,23.32
2022-08-07T02:21:16.420Z,23.30
2022-08-07T02:23:44.710Z,23.31
2022-08-07T02:26:33.980Z,23.29
2022-08-07T02:28:58.780Z,23.28
2022-08-07T02:31:28.781Z,23.29
2022-08-07T02:34:03.635Z,23.30
2022-08-07T02:36:33.117Z,23.29
2022-08-07T02:39:16.022Z,23.29
2022-08-07T02:41:47.288Z,23.27
2022-08-07T02:44:18.470Z,23.27
2022-08-07T02:46:52.800Z,23.27
2022-08-07T02:49:56.339Z,23.26
2022-08-07T02:52:09.585Z,23.26
2022-08-07T02:54:42.411Z,23.24
2022-08-07T02:57:13.423Z,23.25
2022-08-07T02:59:54.762Z,23.24
2022-08-07T03:02:22.007Z,23.23
2022-08-07T03:04:49.330Z,23.24
2022-08-07T03:07:17.152Z,23.23
2022-08-07T03:09:52.477Z,23.22
2022-08-07T03:12:22.547Z,23.22
2022-08-07T03:14:58.014Z,23.21
2022-08-07T03:17:29.965Z,23.21
2022-08-07T03:20:03.810Z,23.20
2022-08-07T03:22:31.108Z,23.20
2022-08-07T03:25:00.385Z,23.21
2022-08-07T03:27:30.393Z,23.19
2022-08-07T03:29:58.270Z,23.18
2022-08-07T03:32:29.808Z,23.19
2022-08-07T03:35:16.956Z,23.17
2022-08-07T03:37:54.087Z,23.16
2022-08-07T03:40:22.137Z,23.17
2022-08-07T03:42:50.757Z,23.15
2022-08-07T03:45:30.268Z,23.16
2022-08-07T03:47:58.290Z,23.13
2022-08-07T03:50:25.313Z,23.14
2022-08-07T03:53:00.216Z,23.14
2022-08-07T03:55:57.536Z,23.13
2022-08-07T03:58:33.727Z,23.11
2022-08-07T04:01:04.454Z,23.11
2022-08-07T04:03:38.898Z,23.11
2022-08-07T04:06:37.787Z,23.11
2022-08-07T04:09:04.850Z,23.09
2022-08-07T04:12:21.369Z,23.09
2022-08-07T04:14:38.772Z,23.09
2022-08-07T04:17:20.603Z,23.07
2022-08-07T04:19:55.072Z,23.07
2022-08-07T04:22:27.394Z,23.07
2022-08-07T04:24:56.043Z,23.07
2022-08-07T04:27:26.503Z,23.07
2022-08-07T04:30:02.125Z,23.07
2022-08-07T04:32:34.733Z,23.05
2022-08-07T04:35:07.260Z,23.05
2022-08-07T04:38:00.998Z,23.04
2022-08-07T04:40:29.558Z,23.04
2022-08-07T04:43:01.973Z,23.04
2022-08-07T04:46:00.372Z,23.03
2022-08-07T04:48:44.511Z,23.02
2022-08-07T04:51:19.827Z,23.01
2022-08-07T04:54:12.651Z,23.01
2022-08-07T04:58:15.330Z,22.99
2022-08-07T05:00:10.673Z,22.99
2022-08-07T05:02:48.128Z,22.99
2022-08-07T05:05:51.793Z,22.99
2022-08-07T05:08:59.627Z,22.97
2022-08-07T05:11:19.368Z,22.97
2022-08-07T05:14:53.040Z,22.95
2022-08-07T05:17:11.992Z,22.96
2022-08-07T05:19:45.210Z,22.96
2022-08-07T05:22:13.252Z,22.96
2022-08-07T05:24:55.971Z,22.96
2022-08-07T05:28:16.380Z,22.96
2022-08-07T05:30:10.647Z,22.96
2022-08-07T05:32:38.769Z,22.95
2022-08-07T05:35:07.878Z,22.93
2022-08-07T05:37:40.716Z,22.92
2022-08-07T05:40:18.338Z,22.91
2022-08-07T05:42:55.948Z,22.91
2022-08-07T05:45:28.256Z,22.93
2022-08-07T05:48:10.985Z,22.94
2022-08-07T05:50:39.603Z,22.96
2022-08-07T05:54:11.954Z,22.95
2022-08-07T05:56:02.326Z,22.93
2022-08-07T05:58:36.644Z,22.92
2022-08-07T06:01:05.957Z,22.89
2022-08-07T06:03:57.200Z,22.85
2022-08-07T06:06:24.074Z,22.85
2022-08-07T06:08:57.347Z,22.87
2022-08-07T06:11:25.272Z,22.88
2022-08-07T06:14:12.076Z,22.91
2022-08-07T06:16:40.203Z,22.94
2022-08-07T06:19:07.349Z,22.98
2022-08-07T06:22:17.020Z,22.99
2022-08-07T06:24:37.596Z,23.01
2022-08-07T06:27:44.010Z,23.05
2022-08-07T06:30:24.253Z,23.05
2022-08-07T06:32:57.945Z,23.08
2022-08-07T06:35:24.666Z,23.08
2022-08-07T06:38:10.006Z,23.10
2022-08-07T06:40:50.636Z,23.11
2022-08-07T06:43:21.209Z,23.11
2022-08-07T06:45:49.065Z,23.12
2022-08-07T06:48:15.961Z,23.13
2022-08-07T06:50:52.505Z,23.13
2022-08-07T06:55:29.814Z,23.15
2022-08-07T06:56:15.400Z,23.15
2022-08-07T07:00:14.048Z,23.17
2022-08-07T07:01:33.156Z,23.19
2022-08-07T07:04:28.435Z,23.20
2022-08-07T07:07:00.916Z,23.21
2022-08-07T07:09:31.316Z,23.22
2022-08-07T07:12:07.791Z,23.20
2022-08-07T07:14:46.235Z,23.19
2022-08-07T07:17:28.893Z,23.18
2022-08-07T07:20:13.667Z,23.17
2022-08-07T07:24:09.661Z,23.17
2022-08-07T07:26:34.280Z,23.18
2022-08-07T07:28:42.194Z,23.20
2022-08-07T07:31:17.318Z,23.21
2022-08-07T07:33:56.452Z,23.24
2022-08-07T07:36:25.222Z,23.26
2022-08-07T07:39:00.934Z,23.27
2022-08-07T07:41:31.049Z,23.33
2022-08-07T07:44:21.419Z,23.35
2022-08-07T07:47:04.392Z,23.40
2022-08-07T07:50:33.277Z,23.43
2022-08-07T07:52:29.597Z,23.46
2022-08-07T07:54:57.534Z,23.49
2022-08-07T07:57:52.082Z,23.49
2022-08-07T08:00:20.778Z,23.51
2022-08-07T08:03:04.929Z,23.53
2022-08-07T08:05:54.034Z,23.54
2022-08-07T08:08:34.909Z,23.55
2022-08-07T08:11:03.742Z,23.55
2022-08-07T08:13:33.289Z,23.58
2022-08-07T08:16:13.237Z,23.60
2022-08-07T08:18:39.926Z,23.62
2022-08-07T08:21:58.599Z,23.63
2022-08-07T08:24:45.574Z,23.61
2022-08-07T08:27:16.648Z,23.59
2022-08-07T08:29:58.816Z,23.61
2022-08-07T08:32:38.244Z,23.59
2022-08-07T08:35:09.214Z,23.60
2022-08-07T08:38:08.132Z,23.62
2022-08-07T08:40:32.218Z,23.63
2022-08-07T08:43:16.135Z,23.67
2022-08-07T08:46:14.912Z,23.66
2022-08-07T08:48:56.072Z,23.68
2022-08-07T08:51:49.902Z,23.68
2022-08-07T08:54:22.438Z,23.68
2022-08-07T08:56:53.152Z,23.69
2022-08-07T09:00:00.143Z,23.67
2022-08-07T09:02:39.111Z,23.65
2022-08-07T09:05:20.000Z,23.64
2022-08-07T09:08:24.343Z,23.61
2022-08-07T09:11:24.822Z,23.60
2022-08-07T09:14:22.218Z,23.59
2022-08-07T09:17:21.987Z,23.58
2022-08-07T09:20:09.433Z,23.57
2022-08-07T09:24:34.137Z,23.60
2022-08-07T09:26:25.351Z,23.57
2022-08-07T09:30:01.924Z,23.62
2022-08-07T09:32:17.007Z,23.61
2022-08-07T09:34:53.820Z,23.62
2022-08-07T09:37:48.087Z,23.66
2022-08-07T09:40:26.869Z,23.66
2022-08-07T09:43:14.571Z,23.66
2022-08-07T09:47:24.151Z,23.67
2022-08-07T09:50:02.027Z,23.67
2022-08-07T09:52:10.378Z,23.66
2022-08-07T09:54:49.838Z,23.66
2022-08-07T09:57:32.980Z,23.65
2022-08-07T10:00:14.471Z,23.56
2022-08-07T10:04:06.453Z,23.64
2022-08-07T10:06:12.103Z,23.69
2022-08-07T10:09:15.472Z,23.65
2022-08-07T10:12:02.175Z,23.66
2022-08-07T10:14:35.413Z,23.68
2022-08-07T10:17:20.702Z,23.69
2022-08-07T10:20:21.875Z,23.73
2022-08-07T10:23:09.806Z,23.73
2022-08-07T10:26:06.754Z,23.73
2022-08-07T10:28:41.652Z,23.76
2022-08-07T10:31:21.842Z,23.78
2022-08-07T10:34:06.778Z,23.79
2022-08-07T10:37:12.492Z,23.77
2022-08-07T10:40:06.224Z,23.77
2022-08-07T10:42:51.170Z,23.80
2022-08-07T10:45:44.512Z,23.82
2022-08-07T10:48:49.025Z,23.78
2022-08-07T10:51:39.728Z,23.79
2022-08-07T10:54:34.202Z,23.76
2022-08-07T10:57:22.012Z,23.76
2022-08-07T11:00:36.123Z,23.77
2022-08-07T11:03:12.417Z,23.79
2022-08-07T11:05:49.233Z,23.79
2022-08-07T11:08:35.970Z,23.75
2022-08-07T11:11:12.268Z,23.74
2022-08-07T11:14:45.968Z,23.76
2022-08-07T11:16:45.889Z,23.78
2022-08-07T11:19:32.033Z,23.82
2022-08-07T11:22:27.211Z,23.83
2022-08-07T11:25:07.340Z,23.82
2022-08-07T11:28:01.509Z,23.80
2022-08-07T11:30:42.302Z,23.83
2022-08-07T11:33:19.282Z,23.86
2022-08-07T11:36:34.969Z,23.83
2022-08-07T11:39:23.583Z,23.85
2022-08-07T11:42:16.835Z,23.86
2022-08-07T11:44:57.915Z,23.88
2022-08-07T11:47:56.643Z,23.84
2022-08-07T11:50:36.609Z,23.83
2022-08-07T11:53:25.392Z,23.84
2022-08-07T11:56:26.743Z,23.83
2022-08-07T11:58:54.788Z,23.83
2022-08-07T12:01:59.245Z,23.68
2022-08-07T12:05:28.677Z,23.63
2022-08-07T12:08:25.924Z,23.65
2022-08-07T12:11:20.307Z,23.68
2022-08-07T12:13:54.232Z,23.72
2022-08-07T12:16:35.702Z,23.71
2022-08-07T12:19:21.412Z,23.73
2022-08-07T12:22:39.327Z,23.69
2022-08-07T12:26:21.371Z,23.67
2022-08-07T12:28:31.898Z,23.72
2022-08-07T12:31:05.402Z,23.74
2022-08-07T12:33:56.181Z,23.77
2022-08-07T12:36:33.092Z,23.77
2022-08-07T12:39:09.275Z,23.80
2022-08-07T12:41:52.696Z,23.82
2022-08-07T12:44:21.321Z,23.82
2022-08-07T12:47:03.633Z,23.84
2022-08-07T12:50:04.563Z,23.82
2022-08-07T12:52:53.060Z,23.81
2022-08-07T12:55:41.442Z,23.82
2022-08-07T12:58:16.357Z,23.81
2022-08-07T13:00:52.615Z,23.80
2022-08-07T13:03:59.151Z,23.77
2022-08-07T13:06:54.190Z,23.78
2022-08-07T13:10:19.533Z,23.82
2022-08-07T13:12:36.435Z,23.83
2022-08-07T13:15:29.398Z,23.84
2022-08-07T13:18:25.879Z,23.85
2022-08-07T13:21:37.843Z,23.84
2022-08-07T13:24:25.886Z,23.87
2022-08-07T13:27:05.752Z,23.91
2022-08-07T13:29:59.160Z,23.90
2022-08-07T13:32:49.834Z,23.92
2022-08-07T13:36:00.568Z,23.92
2022-08-07T13:38:20.214Z,23.93
2022-08-07T13:41:13.011Z,23.91
2022-08-07T13:43:52.750Z,23.91
2022-08-07T13:46:32.772Z,23.92
2022-08-07T13:49:02.129Z,23.94
2022-08-07T13:52:04.831Z,23.97
2022-08-07T13:54:22.652Z,23.98
2022-08-07T13:56:55.913Z,23.99
2022-08-07T13:59:27.139Z,24.02
2022-08-07T14:02:08.746Z,24.01
2022-08-07T14:05:08.411Z,24.01
2022-08-07T14:08:00.500Z,24.03
2022-08-07T14:10:42.048Z,24.05
2022-08-07T14:13:16.189Z,24.05
2022-08-07T14:15:44.818Z,24.06
2022-08-07T14:18:29.735Z,24.05
2022-08-07T14:22:03.410Z,23.99
2022-08-07T14:24:33.470Z,24.07
2022-08-07T14:28:11.393Z,24.11
2022-08-07T14:30:09.710Z,24.11
2022-08-07T14:32:46.099Z,24.13
2022-08-07T14:35:44.798Z,24.16
2022-08-07T14:38:06.985Z,24.15
2022-08-07T14:40:35.617Z,24.16
2022-08-07T14:43:57.647Z,24.18
2022-08-07T14:46:02.021Z,24.13
2022-08-07T14:51:22.571Z,24.13
2022-08-07T14:56:40.823Z,24.17
2022-08-07T15:01:59.002Z,24.22
2022-08-07T15:04:26.323Z,24.27
2022-08-07T15:06:56.488Z,24.28
2022-08-07T15:09:57.588Z,24.28
2022-08-07T15:12:25.940Z,24.29
2022-08-07T15:15:21.090Z,24.28
2022-08-07T15:17:55.833Z,24.29
2022-08-07T15:20:33.108Z,24.30
2022-08-07T15:25:56.293Z,24.32
2022-08-07T15:28:34.999Z,24.34
2022-08-07T15:31:57.987Z,24.35
2022-08-07T15:34:02.634Z,24.36
2022-08-07T15:39:19.084Z,24.33
2022-08-07T15:42:45.246Z,24.33
2022-08-07T15:44:51.903Z,24.33
2022-08-07T15:47:20.439Z,24.35
2022-08-07T15:50:05.903Z,24.40
2022-08-07T15:52:36.431Z,24.40
2022-08-07T15:55:08.973Z,24.43
2022-08-07T15:57:48.630Z,24.44
2022-08-07T16:00:31.449Z,24.45
2022-08-07T16:03:03.925Z,24.44
2022-08-07T16:05:31.681Z,24.43
2022-08-07T16:08:31.755Z,24.43
2022-08-07T16:10:58.449Z,24.43
2022-08-07T16:13:59.911Z,24.44
2022-08-07T16:16:42.984Z,24.43
2022-08-07T16:19:41.878Z,24.41
2022-08-07T16:22:33.795Z,24.42
2022-08-07T16:25:09.007Z,24.43
2022-08-07T16:30:06.066Z,24.39
2022-08-07T16:31:57.087Z,24.39
2022-08-07T16:34:37.235Z,24.42
2022-08-07T16:38:03.681Z,24.42
2022-08-07T16:40:33.495Z,24.41
2022-08-07T16:43:16.905Z,24.41
2022-08-07T16:47:02.930Z,24.41
2022-08-07T16:50:26.638Z,24.41
2022-08-07T16:52:06.391Z,24.39
2022-08-07T16:54:58.662Z,24.41
2022-08-07T16:58:01.726Z,24.40
2022-08-07T17:01:10.387Z,24.38
2022-08-07T17:04:01.456Z,24.39
2022-08-07T17:07:02.783Z,24.39
2022-08-07T17:10:08.442Z,24.40
2022-08-07T17:12:44.083Z,24.42
2022-08-07T17:15:15.785Z,24.43
2022-08-07T17:17:48.364Z,24.43
2022-08-07T17:20:29.671Z,24.43
2022-08-07T17:23:18.053Z,24.43
2022-08-07T17:26:24.052Z,24.42
2022-08-07T17:30:13.159Z,24.40
2022-08-07T17:32:30.824Z,24.40
2022-08-07T17:35:50.088Z,24.44
2022-08-07T17:38:33.820Z,24.44
2022-08-07T17:42:00.849Z,24.47
2022-08-07T17:44:08.341Z,24.48
2022-08-07T17:46:52.241Z,24.51
2022-08-07T17:49:30.209Z,24.50
2022-08-07T17:52:30.450Z,24.37
2022-08-07T17:55:05.873Z,24.40
2022-08-07T17:57:58.956Z,24.39
2022-08-07T18:00:34.619Z,24.39
2022-08-07T18:04:04.289Z,24.36
2022-08-07T18:06:16.464Z,24.39
2022-08-07T18:09:05.899Z,24.31
2022-08-07T18:12:16.602Z,24.40
2022-08-07T18:14:29.345Z,24.41
2022-08-07T18:18:36.934Z,24.39
2022-08-07T18:21:07.391Z,24.40
2022-08-07T18:23:42.229Z,24.42
2022-08-07T18:26:14.934Z,24.42
2022-08-07T18:30:05.654Z,24.44
2022-08-07T18:32:33.083Z,24.48
2022-08-07T18:35:51.579Z,24.47
2022-08-07T18:38:59.366Z,24.49
2022-08-07T18:41:44.654Z,24.49
2022-08-07T18:44:28.062Z,24.49
2022-08-07T18:47:09.932Z,24.49
2022-08-07T18:50:31.018Z,24.50
2022-08-07T18:53:06.939Z,24.49
2022-08-07T18:55:55.767Z,24.52
2022-08-07T18:58:38.384Z,24.51
2022-08-07T19:02:19.352Z,24.50
2022-08-07T19:04:33.685Z,24.40
2022-08-07T19:07:34.613Z,24.47
2022-08-07T19:10:04.423Z,24.44
2022-08-07T19:12:48.934Z,24.44
2022-08-07T19:16:02.724Z,24.41
2022-08-07T19:18:44.546Z,24.40
2022-08-07T19:21:44.310Z,24.40
2022-08-07T19:24:08.889Z,24.37
2022-08-07T19:28:29.430Z,24.38
2022-08-07T19:30:57.375Z,24.35
2022-08-07T19:32:25.971Z,24.25
2022-08-07T19:35:03.994Z,24.32
2022-08-07T19:37:55.188Z,24.31
2022-08-07T19:40:30.534Z,24.31
2022-08-07T19:42:58.776Z,24.29
2022-08-07T19:46:04.657Z,24.30
2022-08-07T19:48:18.810Z,24.28
2022-08-07T19:50:53.398Z,24.28
2022-08-07T19:54:34.343Z,24.27
2022-08-07T19:56:13.644Z,24.16
2022-08-07T19:58:56.805Z,24.22
2022-08-07T20:01:24.473Z,24.22
2022-08-07T20:04:11.666Z,24.24
2022-08-07T20:06:58.293Z,24.23
2022-08-07T20:10:35.780Z,24.24
2022-08-07T20:12:31.813Z,24.23
2022-08-07T20:15:04.643Z,24.23
2022-08-07T20:17:43.679Z,24.22
2022-08-07T20:20:10.974Z,24.22
2022-08-07T20:22:44.421Z,24.27
2022-08-07T20:25:19.660Z,24.29
2022-08-07T20:27:54.101Z,24.31
2022-08-07T20:30:30.880Z,24.33
2022-08-07T20:32:58.110Z,24.35
2022-08-07T20:35:34.397Z,24.38
2022-08-07T20:38:06.441Z,24.37
2022-08-07T20:40:41.174Z,24.39
2022-08-07T20:43:09.431Z,24.39
2022-08-07T20:46:30.184Z,24.41
2022-08-07T20:48:33.894Z,24.41
2022-08-07T20:51:03.946Z,24.40
2022-08-07T20:54:03.534Z,24.41
2022-08-07T20:56:28.019Z,24.40
2022-08-07T20:59:05.246Z,24.41
2022-08-07T21:01:45.207Z,24.41
2022-08-07T21:04:22.216Z,24.42
2022-08-07T21:06:53.475Z,24.41
2022-08-07T21:09:24.691Z,24.41
2022-08-07T21:11:57.289Z,24.41
2022-08-07T21:14:33.886Z,24.42
2022-08-07T21:18:00.533Z,24.42
2022-08-07T21:20:04.620Z,24.40
2022-08-07T21:22:38.703Z,24.41
2022-08-07T21:25:20.189Z,24.40
2022-08-07T21:28:13.524Z,24.40
2022-08-07T21:30:45.681Z,24.38
2022-08-07T21:33:21.023Z,24.40
2022-08-07T21:36:12.228Z,24.41
2022-08-07T21:39:46.056Z,24.38
2022-08-07T21:42:48.299Z,24.35
2022-08-07T21:46:08.083Z,24.36
2022-08-07T21:48:28.768Z,24.38
2022-08-07T21:51:24.947Z,24.37
2022-08-07T21:53:54.233Z,24.38
2022-08-07T21:56:47.723Z,24.38
2022-08-07T22:00:02.594Z,24.37
2022-08-07T22:02:27.740Z,24.36
2022-08-07T22:04:57.114Z,24.37
2022-08-07T22:07:31.772Z,24.38
2022-08-07T22:10:20.197Z,24.38
2022-08-07T22:12:55.947Z,24.38
2022-08-07T22:16:41.978Z,24.35
2022-08-07T22:18:16.958Z,24.37
2022-08-07T22:21:17.097Z,24.36
2022-08-07T22:24:00.426Z,24.36
2022-08-07T22:26:44.429Z,24.35
2022-08-07T22:29:37.869Z,24.35
2022-08-07T22:32:34.331Z,24.35
2022-08-07T22:35:02.290Z,24.35
2022-08-07T22:38:03.285Z,24.37
2022-08-07T22:41:07.577Z,24.35
2022-08-07T22:43:50.441Z,24.33
2022-08-07T22:47:08.934Z,24.34
2022-08-07T22:49:55.166Z,24.32
2022-08-07T22:52:43.413Z,24.32
2022-08-07T22:55:34.149Z,24.32
2022-08-07T22:58:42.230Z,24.30
2022-08-07T23:01:15.265Z,24.21
2022-08-07T23:04:05.485Z,24.30
2022-08-07T23:06:35.498Z,24.32
2022-08-07T23:10:03.368Z,24.32
2022-08-07T23:12:33.935Z,24.31
2022-08-07T23:16:06.548Z,24.29
2022-08-07T23:18:38.153Z,24.30
2022-08-07T23:21:29.864Z,24.28
2022-08-07T23:24:21.612Z,24.30
2022-08-07T23:27:17.374Z,24.30
2022-08-07T23:30:37.608Z,24.30
2022-08-07T23:34:35.024Z,24.28
2022-08-07T23:36:17.396Z,24.27
2022-08-07T23:39:22.058Z,24.25
2022-08-07T23:42:21.729Z,24.27
2022-08-07T23:45:03.984Z,24.27
2022-08-07T23:48:02.697Z,24.27
2022-08-07T23:50:50.072Z,24.26
2022-08-07T23:53:49.550Z,24.26
2022-08-07T23:56:53.434Z,24.25
